sensor_id;sensor_type;location;lat;lon;timestamp;pressure;altitude;pressure_sealevel;temperature;humidity
62634;BME280;48704;50.534;6.442;2023-08-07T00:00:01;95315.00;;;8.82;100.00
62634;BME280;48704;50.534;6.442;2023-08-07T00:02:26;95329.38;;;8.81;100.00
62634;BME280;48704;50.534;6.442;2023-08-07T00:04:51;95326.94;;;8.74;100.00
62634;BME280;48704;50.534;6.442;2023-08-07T00:07:17;95326.78;;;8.77;100.00
62634;BME280;48704;50.534;6.442;2023-08-07T00:09:43;95320.44;;;8.77;100.00
62634;BME280;48704;50.534;6.442;2023-08-07T00:12:08;95337.06;;;8.86;100.00
62634;BME280;48704;50.534;6.442;2023-08-07T00:14:34;95324.75;;;8.78;100.00
62634;BME280;48704;50.534;6.442;2023-08-07T00:17:00;95323.53;;;8.79;100.00
62634;BME280;48704;50.534;6.442;2023-08-07T00:19:26;95331.56;;;8.77;100.00
62634;BME280;48704;50.534;6.442;2023-08-07T00:21:52;95329.41;;;8.71;100.00
62634;BME280;48704;50.534;6.442;2023-08-07T00:24:18;95314.59;;;8.75;100.00
62634;BME280;48704;50.534;6.442;2023-08-07T00:26:43;95323.56;;;8.69;100.00
62634;BME280;48704;50.534;6.442;2023-08-07T00:29:09;95316.19;;;8.66;100.00
62634;BME280;48704;50.534;6.442;2023-08-07T00:31:34;95332.84;;;8.66;100.00
62634;BME280;48704;50.534;6.442;2023-08-07T00:33:59;95335.91;;;8.68;100.00
62634;BME280;48704;50.534;6.442;2023-08-07T00:36:25;95336.09;;;8.65;100.00
62634;BME280;48704;50.534;6.442;2023-08-07T00:38:53;95329.94;;;8.61;100.00
62634;BME280;48704;50.534;6.442;2023-08-07T00:41:18;95322.06;;;8.59;100.00
62634;BME280;48704;50.534;6.442;2023-08-07T00:43:44;95343.59;;;8.74;100.00
62634;BME280;48704;50.534;6.442;2023-08-07T00:46:09;95324.56;;;8.57;100.00
62634;BME280;48704;50.534;6.442;2023-08-07T00:48:35;95329.13;;;8.69;100.00
62634;BME280;48704;50.534;6.442;2023-08-07T00:51:02;95330.03;;;8.76;100.00
62634;BME280;48704;50.534;6.442;2023-08-07T00:53:28;95336.81;;;8.75;100.00
62634;BME280;48704;50.534;6.442;2023-08-07T00:55:54;95339.94;;;8.67;100.00
62634;BME280;48704;50.534;6.442;2023-08-07T00:58:19;95336.25;;;8.61;100.00
62634;BME280;48704;50.534;6.442;2023-08-07T01:00:45;95333.19;;;8.59;100.00
62634;BME280;48704;50.534;6.442;2023-08-07T01:03:12;95343.34;;;8.62;100.00
62634;BME280;48704;50.534;6.442;2023-08-07T01:05:38;95343.44;;;8.53;100.00
62634;BME280;48704;50.534;6.442;2023-08-07T01:08:04;95335.38;;;8.55;100.00
62634;BME280;48704;50.534;6.442;2023-08-07T01:13:34;95333.34;;;8.56;100.00
62634;BME280;48704;50.534;6.442;2023-08-07T01:16:05;95342.75;;;8.58;100.00
62634;BME280;48704;50.534;6.442;2023-08-07T01:18:36;95347.91;;;8.51;100.00
62634;BME280;48704;50.534;6.442;2023-08-07T01:21:03;95355.31;;;8.54;100.00
62634;BME280;48704;50.534;6.442;2023-08-07T01:23:28;95348.06;;;8.47;100.00
62634;BME280;48704;50.534;6.442;2023-08-07T01:25:54;95356.03;;;8.54;100.00
62634;BME280;48704;50.534;6.442;2023-08-07T01:28:29;95355.00;;;8.52;100.00
62634;BME280;48704;50.534;6.442;2023-08-07T01:30:59;95365.56;;;8.62;100.00
62634;BME280;48704;50.534;6.442;2023-08-07T01:33:34;95346.78;;;8.57;100.00
62634;BME280;48704;50.534;6.442;2023-08-07T01:36:05;95342.34;;;8.51;100.00
62634;BME280;48704;50.534;6.442;2023-08-07T01:38:32;95347.31;;;8.47;100.00
62634;BME280;48704;50.534;6.442;2023-08-07T01:40:58;95349.78;;;8.45;100.00
62634;BME280;48704;50.534;6.442;2023-08-07T01:43:23;95345.16;;;8.42;100.00
62634;BME280;48704;50.534;6.442;2023-08-07T01:45:49;95349.31;;;8.46;100.00
62634;BME280;48704;50.534;6.442;2023-08-07T01:48:14;95356.53;;;8.53;100.00
62634;BME280;48704;50.534;6.442;2023-08-07T01:50:39;95362.56;;;8.51;100.00
62634;BME280;48704;50.534;6.442;2023-08-07T01:53:06;95351.16;;;8.49;100.00
62634;BME280;48704;50.534;6.442;2023-08-07T01:55:31;95344.41;;;8.41;100.00
62634;BME280;48704;50.534;6.442;2023-08-07T01:57:57;95350.56;;;8.45;100.00
62634;BME280;48704;50.534;6.442;2023-08-07T02:00:23;95359.31;;;8.53;100.00
62634;BME280;48704;50.534;6.442;2023-08-07T02:02:48;95349.16;;;8.50;100.00
62634;BME280;48704;50.534;6.442;2023-08-07T02:05:14;95338.81;;;8.50;100.00
62634;BME280;48704;50.534;6.442;2023-08-07T02:07:41;95346.31;;;8.59;100.00
62634;BME280;48704;50.534;6.442;2023-08-07T02:10:06;95341.97;;;8.58;100.00
62634;BME280;48704;50.534;6.442;2023-08-07T02:12:32;95363.81;;;8.50;100.00
62634;BME280;48704;50.534;6.442;2023-08-07T02:14:58;95354.47;;;8.62;100.00
62634;BME280;48704;50.534;6.442;2023-08-07T02:17:27;95354.81;;;8.55;100.00
62634;BME280;48704;50.534;6.442;2023-08-07T02:19:52;95351.16;;;8.49;100.00
62634;BME280;48704;50.534;6.442;2023-08-07T02:22:18;95362.88;;;8.53;100.00
62634;BME280;48704;50.534;6.442;2023-08-07T02:24:43;95362.72;;;8.48;100.00
62634;BME280;48704;50.534;6.442;2023-08-07T02:27:08;95355.94;;;8.49;100.00
62634;BME280;48704;50.534;6.442;2023-08-07T02:29:34;95354.56;;;8.44;100.00
62634;BME280;48704;50.534;6.442;2023-08-07T02:32:03;95355.78;;;8.52;100.00
62634;BME280;48704;50.534;6.442;2023-08-07T02:34:31;95358.25;;;8.50;100.00
62634;BME280;48704;50.534;6.442;2023-08-07T02:36:58;95364.38;;;8.54;100.00
62634;BME280;48704;50.534;6.442;2023-08-07T02:39:24;95366.91;;;8.43;100.00
62634;BME280;48704;50.534;6.442;2023-08-07T02:41:49;95395.41;;;8.53;100.00
62634;BME280;48704;50.534;6.442;2023-08-07T02:44:15;95366.22;;;8.57;100.00
62634;BME280;48704;50.534;6.442;2023-08-07T02:46:42;95369.94;;;8.54;100.00
62634;BME280;48704;50.534;6.442;2023-08-07T02:49:07;95378.56;;;8.56;100.00
62634;BME280;48704;50.534;6.442;2023-08-07T02:51:33;95362.88;;;8.53;100.00
62634;BME280;48704;50.534;6.442;2023-08-07T02:53:58;95352.09;;;8.46;100.00
62634;BME280;48704;50.534;6.442;2023-08-07T02:56:23;95349.91;;;8.50;100.00
62634;BME280;48704;50.534;6.442;2023-08-07T02:58:48;95360.13;;;8.44;100.00
62634;BME280;48704;50.534;6.442;2023-08-07T03:01:14;95355.50;;;8.41;100.00
62634;BME280;48704;50.534;6.442;2023-08-07T03:03:39;95356.72;;;8.49;100.00
62634;BME280;48704;50.534;6.442;2023-08-07T03:06:05;95364.13;;;8.43;100.00
62634;BME280;48704;50.534;6.442;2023-08-07T03:08:30;95361.97;;;8.47;100.00
62634;BME280;48704;50.534;6.442;2023-08-07T03:10:57;95366.75;;;8.47;100.00
62634;BME280;48704;50.534;6.442;2023-08-07T03:13:23;95367.22;;;8.45;100.00
62634;BME280;48704;50.534;6.442;2023-08-07T03:15:49;95373.09;;;8.38;100.00
62634;BME280;48704;50.534;6.442;2023-08-07T03:18:17;95377.88;;;8.37;100.00
62634;BME280;48704;50.534;6.442;2023-08-07T03:20:43;95359.53;;;8.22;100.00
62634;BME280;48704;50.534;6.442;2023-08-07T03:23:09;95383.13;;;8.26;100.00
62634;BME280;48704;50.534;6.442;2023-08-07T03:25:35;95363.22;;;8.28;100.00
62634;BME280;48704;50.534;6.442;2023-08-07T03:28:00;95364.16;;;8.25;100.00
62634;BME280;48704;50.534;6.442;2023-08-07T03:30:25;95362.63;;;8.24;100.00
62634;BME280;48704;50.534;6.442;2023-08-07T03:32:51;95366.31;;;8.30;100.00
62634;BME280;48704;50.534;6.442;2023-08-07T03:35:16;95368.94;;;8.24;100.00
62634;BME280;48704;50.534;6.442;2023-08-07T03:37:41;95363.53;;;8.30;100.00
62634;BME280;48704;50.534;6.442;2023-08-07T03:40:07;95371.00;;;8.15;100.00
62634;BME280;48704;50.534;6.442;2023-08-07T03:42:32;95387.59;;;8.24;100.00
62634;BME280;48704;50.534;6.442;2023-08-07T03:44:58;95379.44;;;8.20;100.00
62634;BME280;48704;50.534;6.442;2023-08-07T03:47:24;95371.00;;;8.15;100.00
62634;BME280;48704;50.534;6.442;2023-08-07T03:49:49;95362.66;;;8.15;100.00
62634;BME280;48704;50.534;6.442;2023-08-07T03:52:14;95379.34;;;8.05;100.00
62634;BME280;48704;50.534;6.442;2023-08-07T03:54:40;95376.56;;;8.15;100.00
62634;BME280;48704;50.534;6.442;2023-08-07T03:57:06;95375.16;;;8.10;100.00
62634;BME280;48704;50.534;6.442;2023-08-07T03:59:33;95377.91;;;8.19;100.00
62634;BME280;48704;50.534;6.442;2023-08-07T04:01:58;95368.53;;;8.17;100.00
62634;BME280;48704;50.534;6.442;2023-08-07T04:04:24;95379.03;;;8.03;100.00
62634;BME280;48704;50.534;6.442;2023-08-07T04:06:49;95379.03;;;8.03;100.00
62634;BME280;48704;50.534;6.442;2023-08-07T04:09:15;95377.81;;;8.04;100.00
62634;BME280;48704;50.534;6.442;2023-08-07T04:11:42;95390.44;;;8.05;100.00
62634;BME280;48704;50.534;6.442;2023-08-07T04:14:07;95380.28;;;8.02;100.00
62634;BME280;48704;50.534;6.442;2023-08-07T04:16:32;95377.81;;;8.04;100.00
62634;BME280;48704;50.534;6.442;2023-08-07T04:18:57;95392.59;;;8.11;100.00
62634;BME280;48704;50.534;6.442;2023-08-07T04:21:23;95375.16;;;8.10;100.00
62634;BME280;48704;50.534;6.442;2023-08-07T04:23:48;95371.03;;;7.96;100.00
62634;BME280;48704;50.534;6.442;2023-08-07T04:26:14;95383.19;;;8.08;100.00
62634;BME280;48704;50.534;6.442;2023-08-07T04:28:39;95383.34;;;8.04;100.00
62634;BME280;48704;50.534;6.442;2023-08-07T04:31:05;95386.13;;;8.14;100.00
62634;BME280;48704;50.534;6.442;2023-08-07T04:33:30;95389.81;;;8.11;100.00
62634;BME280;48704;50.534;6.442;2023-08-07T04:35:55;95386.56;;;8.12;100.00
62634;BME280;48704;50.534;6.442;2023-08-07T04:38:21;95397.78;;;8.18;100.00
62634;BME280;48704;50.534;6.442;2023-08-07T04:40:48;95388.84;;;8.23;100.00
62634;BME280;48704;50.534;6.442;2023-08-07T04:43:14;95383.91;;;8.27;100.00
62634;BME280;48704;50.534;6.442;2023-08-07T04:45:40;95400.84;;;8.38;100.00
62634;BME280;48704;50.534;6.442;2023-08-07T04:48:09;95390.38;;;8.24;100.00
62634;BME280;48704;50.534;6.442;2023-08-07T04:50:34;95395.94;;;8.24;100.00
62634;BME280;48704;50.534;6.442;2023-08-07T04:53:00;95396.84;;;8.30;100.00
62634;BME280;48704;50.534;6.442;2023-08-07T04:55:25;95399.63;;;8.30;100.00
62634;BME280;48704;50.534;6.442;2023-08-07T04:57:50;95405.16;;;8.30;100.00
62634;BME280;48704;50.534;6.442;2023-08-07T05:00:19;95395.59;;;8.31;100.00
62634;BME280;48704;50.534;6.442;2023-08-07T05:02:44;95408.09;;;8.45;100.00
62634;BME280;48704;50.534;6.442;2023-08-07T05:05:10;95415.34;;;8.42;100.00
62634;BME280;48704;50.534;6.442;2023-08-07T05:07:35;95401.13;;;8.49;100.00
62634;BME280;48704;50.534;6.442;2023-08-07T05:10:04;95405.16;;;8.48;100.00
62634;BME280;48704;50.534;6.442;2023-08-07T05:12:29;95407.31;;;8.44;100.00
62634;BME280;48704;50.534;6.442;2023-08-07T05:14:55;95403.16;;;8.40;100.00
62634;BME280;48704;50.534;6.442;2023-08-07T05:17:21;95401.47;;;8.42;100.00
62634;BME280;48704;50.534;6.442;2023-08-07T05:19:46;95410.88;;;8.45;100.00
62634;BME280;48704;50.534;6.442;2023-08-07T05:22:12;95413.00;;;8.50;100.00
62634;BME280;48704;50.534;6.442;2023-08-07T05:24:37;95423.22;;;8.44;100.00
62634;BME280;48704;50.534;6.442;2023-08-07T05:27:07;95411.34;;;8.43;100.00
62634;BME280;48704;50.534;6.442;2023-08-07T05:29:33;95416.59;;;8.41;100.00
62634;BME280;48704;50.534;6.442;2023-08-07T05:31:59;95416.75;;;8.37;100.00
62634;BME280;48704;50.534;6.442;2023-08-07T05:34:24;95430.16;;;8.39;100.00
62634;BME280;48704;50.534;6.442;2023-08-07T05:36:50;95420.91;;;8.42;100.00
62634;BME280;48704;50.534;6.442;2023-08-07T05:39:15;95421.97;;;8.45;100.00
62634;BME280;48704;50.534;6.442;2023-08-07T05:41:41;95432.94;;;8.39;100.00
62634;BME280;48704;50.534;6.442;2023-08-07T05:44:07;95429.84;;;8.46;100.00
62634;BME280;48704;50.534;6.442;2023-08-07T05:46:32;95426.75;;;8.44;100.00
62634;BME280;48704;50.534;6.442;2023-08-07T05:48:57;95423.00;;;8.56;100.00
62634;BME280;48704;50.534;6.442;2023-08-07T05:51:23;95435.06;;;8.53;100.00
62634;BME280;48704;50.534;6.442;2023-08-07T05:53:48;95430.09;;;8.57;100.00
62634;BME280;48704;50.534;6.442;2023-08-07T05:56:13;95429.50;;;8.53;100.00
62634;BME280;48704;50.534;6.442;2023-08-07T05:58:39;95433.00;;;8.63;100.00
62634;BME280;48704;50.534;6.442;2023-08-07T06:01:05;95445.22;;;8.56;100.00
62634;BME280;48704;50.534;6.442;2023-08-07T06:03:30;95438.13;;;8.55;100.00
62634;BME280;48704;50.534;6.442;2023-08-07T06:05:56;95448.00;;;8.56;100.00
62634;BME280;48704;50.534;6.442;2023-08-07T06:08:22;95447.34;;;8.61;100.00
62634;BME280;48704;50.534;6.442;2023-08-07T06:10:47;95437.78;;;8.62;100.00
62634;BME280;48704;50.534;6.442;2023-08-07T06:13:13;95440.19;;;8.79;100.00
62634;BME280;48704;50.534;6.442;2023-08-07T06:15:38;95429.72;;;8.74;100.00
62634;BME280;48704;50.534;6.442;2023-08-07T06:18:04;95448.81;;;8.90;100.00
62634;BME280;48704;50.534;6.442;2023-08-07T06:20:29;95446.03;;;8.90;100.00
62634;BME280;48704;50.534;6.442;2023-08-07T06:22:54;95439.88;;;8.86;100.00
62634;BME280;48704;50.534;6.442;2023-08-07T06:25:20;95462.88;;;8.86;100.00
62634;BME280;48704;50.534;6.442;2023-08-07T06:27:45;95450.34;;;8.91;100.00
62634;BME280;48704;50.534;6.442;2023-08-07T06:30:11;95447.19;;;8.98;100.00
62634;BME280;48704;50.534;6.442;2023-08-07T06:32:36;95457.72;;;8.94;100.00
62634;BME280;48704;50.534;6.442;2023-08-07T06:35:02;95458.25;;;8.83;100.00
62634;BME280;48704;50.534;6.442;2023-08-07T06:37:28;95465.41;;;8.99;100.00
62634;BME280;48704;50.534;6.442;2023-08-07T06:39:53;95451.16;;;8.82;100.00
62634;BME280;48704;50.534;6.442;2023-08-07T06:42:19;95460.50;;;8.94;100.00
62634;BME280;48704;50.534;6.442;2023-08-07T06:44:44;95464.25;;;8.91;100.00
62634;BME280;48704;50.534;6.442;2023-08-07T06:47:10;95455.59;;;8.89;100.00
62634;BME280;48704;50.534;6.442;2023-08-07T06:49:35;95472.00;;;8.78;100.00
62634;BME280;48704;50.534;6.442;2023-08-07T06:52:01;95475.09;;;8.80;100.00
62634;BME280;48704;50.534;6.442;2023-08-07T06:54:27;95475.25;;;8.76;100.00
62634;BME280;48704;50.534;6.442;2023-08-07T06:56:52;95473.25;;;8.67;100.00
62634;BME280;48704;50.534;6.442;2023-08-07T06:59:17;95472.34;;;8.61;100.00
62634;BME280;48704;50.534;6.442;2023-08-07T07:01:43;95478.19;;;8.73;100.00
62634;BME280;48704;50.534;6.442;2023-08-07T07:04:08;95481.91;;;8.69;100.00
62634;BME280;48704;50.534;6.442;2023-08-07T07:06:33;95491.16;;;8.76;100.00
62634;BME280;48704;50.534;6.442;2023-08-07T07:08:59;95503.19;;;8.73;100.00
62634;BME280;48704;50.534;6.442;2023-08-07T07:11:25;95494.56;;;8.70;100.00
62634;BME280;48704;50.534;6.442;2023-08-07T07:13:51;95497.81;;;8.69;100.00
62634;BME280;48704;50.534;6.442;2023-08-07T07:16:20;95497.47;;;8.76;100.00
62634;BME280;48704;50.534;6.442;2023-08-07T07:18:51;95501.66;;;8.71;100.00
62634;BME280;48704;50.534;6.442;2023-08-07T07:21:18;95508.28;;;8.74;100.00
62634;BME280;48704;50.534;6.442;2023-08-07T07:23:43;95511.38;;;8.67;100.00
62634;BME280;48704;50.534;6.442;2023-08-07T07:26:09;95511.81;;;8.75;100.00
62634;BME280;48704;50.534;6.442;2023-08-07T07:28:34;95516.31;;;8.72;100.00
62634;BME280;48704;50.534;6.442;2023-08-07T07:30:59;95513.72;;;8.59;100.00
62634;BME280;48704;50.534;6.442;2023-08-07T07:33:26;95542.56;;;8.62;100.00
62634;BME280;48704;50.534;6.442;2023-08-07T07:35:52;95511.81;;;8.75;100.00
62634;BME280;48704;50.534;6.442;2023-08-07T07:38:21;95518.84;;;8.94;100.00
62634;BME280;48704;50.534;6.442;2023-08-07T07:40:47;95507.56;;;8.97;100.00
62634;BME280;48704;50.534;6.442;2023-08-07T07:43:12;95523.75;;;9.08;100.00
62634;BME280;48704;50.534;6.442;2023-08-07T07:45:38;95527.47;;;9.05;100.00
62634;BME280;48704;50.534;6.442;2023-08-07T07:48:04;95520.63;;;9.15;100.00
62634;BME280;48704;50.534;6.442;2023-08-07T07:50:31;95529.25;;;9.26;100.00
62634;BME280;48704;50.534;6.442;2023-08-07T07:52:56;95535.03;;;9.37;100.00
62634;BME280;48704;50.534;6.442;2023-08-07T07:55:22;95571.66;;;9.36;100.00
62634;BME280;48704;50.534;6.442;2023-08-07T07:57:47;95541.97;;;9.42;100.00
62634;BME280;48704;50.534;6.442;2023-08-07T08:00:13;95552.41;;;9.56;100.00
62634;BME280;48704;50.534;6.442;2023-08-07T08:02:41;95536.78;;;9.59;100.00
62634;BME280;48704;50.534;6.442;2023-08-07T08:05:11;95547.06;;;9.67;100.00
62634;BME280;48704;50.534;6.442;2023-08-07T08:07:37;95548.03;;;9.88;100.00
62634;BME280;48704;50.534;6.442;2023-08-07T08:10:06;95533.53;;;9.84;100.00
62634;BME280;48704;50.534;6.442;2023-08-07T08:12:32;95543.75;;;9.78;100.00
62634;BME280;48704;50.534;6.442;2023-08-07T08:14:57;95548.09;;;9.79;100.00
62634;BME280;48704;50.534;6.442;2023-08-07T08:17:23;95545.84;;;9.92;100.00
62634;BME280;48704;50.534;6.442;2023-08-07T08:19:49;95537.03;;;10.09;100.00
62634;BME280;48704;50.534;6.442;2023-08-07T08:22:15;95548.94;;;10.09;100.00
62634;BME280;48704;50.534;6.442;2023-08-07T08:24:41;95552.81;;;10.12;100.00
62634;BME280;48704;50.534;6.442;2023-08-07T08:27:06;95549.69;;;9.95;100.00
62634;BME280;48704;50.534;6.442;2023-08-07T08:29:31;95549.44;;;10.07;100.00
62634;BME280;48704;50.534;6.442;2023-08-07T08:31:57;95563.84;;;10.30;100.00
62634;BME280;48704;50.534;6.442;2023-08-07T08:34:25;95552.78;;;10.21;100.00
62634;BME280;48704;50.534;6.442;2023-08-07T08:36:50;95555.38;;;10.24;100.00
62634;BME280;48704;50.534;6.442;2023-08-07T08:39:15;95577.41;;;10.37;100.00
62634;BME280;48704;50.534;6.442;2023-08-07T08:41:42;95570.09;;;10.16;100.00
62634;BME280;48704;50.534;6.442;2023-08-07T08:44:12;95580.69;;;10.50;100.00
62634;BME280;48704;50.534;6.442;2023-08-07T08:46:38;95568.59;;;10.53;100.00
62634;BME280;48704;50.534;6.442;2023-08-07T08:49:08;95581.47;;;10.80;100.00
62634;BME280;48704;50.534;6.442;2023-08-07T08:51:35;95582.44;;;10.77;100.00
62634;BME280;48704;50.534;6.442;2023-08-07T08:54:02;95580.03;;;10.85;100.00
62634;BME280;48704;50.534;6.442;2023-08-07T08:56:29;95584.47;;;10.77;100.00
62634;BME280;48704;50.534;6.442;2023-08-07T08:58:55;95585.16;;;10.71;100.00
62634;BME280;48704;50.534;6.442;2023-08-07T09:01:21;95588.31;;;10.64;100.00
62634;BME280;48704;50.534;6.442;2023-08-07T09:03:47;95596.41;;;10.92;100.00
62634;BME280;48704;50.534;6.442;2023-08-07T09:06:13;95589.28;;;11.20;100.00
62634;BME280;48704;50.534;6.442;2023-08-07T09:08:43;95594.28;;;11.31;100.00
62634;BME280;48704;50.534;6.442;2023-08-07T09:11:10;95591.34;;;11.55;100.00
62634;BME280;48704;50.534;6.442;2023-08-07T09:13:38;95584.38;;;11.65;100.00
62634;BME280;48704;50.534;6.442;2023-08-07T09:16:05;95588.94;;;11.97;100.00
62634;BME280;48704;50.534;6.442;2023-08-07T09:18:32;95586.22;;;11.83;100.00
62634;BME280;48704;50.534;6.442;2023-08-07T09:20:59;95589.22;;;11.79;100.00
62634;BME280;48704;50.534;6.442;2023-08-07T09:23:24;95589.97;;;11.65;100.00
62634;BME280;48704;50.534;6.442;2023-08-07T09:26:02;95597.03;;;11.95;100.00
62634;BME280;48704;50.534;6.442;2023-08-07T09:28:30;95600.16;;;11.83;100.00
62634;BME280;48704;50.534;6.442;2023-08-07T09:30:58;95617.78;;;12.09;100.00
62634;BME280;48704;50.534;6.442;2023-08-07T09:33:25;95607.53;;;12.21;100.00
62634;BME280;48704;50.534;6.442;2023-08-07T09:35:51;95618.78;;;12.47;100.00
62634;BME280;48704;50.534;6.442;2023-08-07T09:38:19;95613.00;;;12.50;100.00
62634;BME280;48704;50.534;6.442;2023-08-07T09:40:48;95616.34;;;12.14;100.00
62634;BME280;48704;50.534;6.442;2023-08-07T09:43:21;95624.72;;;12.14;100.00
62634;BME280;48704;50.534;6.442;2023-08-07T09:45:48;95623.84;;;11.87;100.00
62634;BME280;48704;50.534;6.442;2023-08-07T09:48:20;95622.84;;;11.41;100.00
62634;BME280;48704;50.534;6.442;2023-08-07T09:50:49;95630.25;;;11.14;100.00
62634;BME280;48704;50.534;6.442;2023-08-07T09:53:14;95647.94;;;10.96;100.00
62634;BME280;48704;50.534;6.442;2023-08-07T09:55:40;95642.94;;;11.00;100.00
62634;BME280;48704;50.534;6.442;2023-08-07T09:58:08;95635.44;;;10.92;100.00
62634;BME280;48704;50.534;6.442;2023-08-07T10:00:35;95649.50;;;11.12;100.00
62634;BME280;48704;50.534;6.442;2023-08-07T10:03:01;95650.41;;;10.80;100.00
62634;BME280;48704;50.534;6.442;2023-08-07T10:05:27;95651.28;;;10.86;100.00
62634;BME280;48704;50.534;6.442;2023-08-07T10:07:54;95653.28;;;10.85;100.00
62634;BME280;48704;50.534;6.442;2023-08-07T10:10:21;95654.66;;;10.90;100.00
62634;BME280;48704;50.534;6.442;2023-08-07T10:12:46;95658.84;;;10.70;100.00
62634;BME280;48704;50.534;6.442;2023-08-07T10:15:14;95672.50;;;10.68;100.00
62634;BME280;48704;50.534;6.442;2023-08-07T10:17:40;95675.94;;;10.63;100.00
62634;BME280;48704;50.534;6.442;2023-08-07T10:20:06;95678.44;;;10.61;100.00
62634;BME280;48704;50.534;6.442;2023-08-07T10:22:34;95670.94;;;10.67;100.00
62634;BME280;48704;50.534;6.442;2023-08-07T10:25:03;95676.88;;;10.99;100.00
62634;BME280;48704;50.534;6.442;2023-08-07T10:27:32;95677.00;;;11.49;100.00
62634;BME280;48704;50.534;6.442;2023-08-07T10:30:00;95665.75;;;12.08;100.00
62634;BME280;48704;50.534;6.442;2023-08-07T10:32:28;95677.72;;;11.93;100.00
62634;BME280;48704;50.534;6.442;2023-08-07T10:34:54;95683.41;;;11.99;100.00
62634;BME280;48704;50.534;6.442;2023-08-07T10:40:04;95690.09;;;11.43;100.00
62634;BME280;48704;50.534;6.442;2023-08-07T10:45:17;95690.47;;;11.35;100.00
62634;BME280;48704;50.534;6.442;2023-08-07T10:47:44;95688.53;;;11.27;100.00
62634;BME280;48704;50.534;6.442;2023-08-07T10:50:16;95693.34;;;11.26;100.00
62634;BME280;48704;50.534;6.442;2023-08-07T10:52:51;95683.81;;;11.33;100.00
62634;BME280;48704;50.534;6.442;2023-08-07T10:55:17;95687.94;;;11.52;100.00
62634;BME280;48704;50.534;6.442;2023-08-07T10:57:47;95681.19;;;12.03;100.00
62634;BME280;48704;50.534;6.442;2023-08-07T11:00:14;95691.03;;;13.41;100.00
62634;BME280;48704;50.534;6.442;2023-08-07T11:02:43;95690.09;;;13.23;100.00
62634;BME280;48704;50.534;6.442;2023-08-07T11:05:08;95674.97;;;13.15;100.00
62634;BME280;48704;50.534;6.442;2023-08-07T11:07:34;95679.91;;;12.80;100.00
62634;BME280;48704;50.534;6.442;2023-08-07T11:10:05;95678.94;;;12.83;100.00
62634;BME280;48704;50.534;6.442;2023-08-07T11:12:30;95687.78;;;13.48;100.00
62634;BME280;48704;50.534;6.442;2023-08-07T11:14:56;95683.72;;;13.80;100.00
62634;BME280;48704;50.534;6.442;2023-08-07T11:17:25;95673.19;;;13.64;100.00
62634;BME280;48704;50.534;6.442;2023-08-07T11:19:50;95677.41;;;13.54;100.00
62634;BME280;48704;50.534;6.442;2023-08-07T11:22:19;95679.72;;;13.09;100.00
62634;BME280;48704;50.534;6.442;2023-08-07T11:24:46;95681.53;;;12.66;100.00
62634;BME280;48704;50.534;6.442;2023-08-07T11:27:12;95689.06;;;12.39;100.00
62634;BME280;48704;50.534;6.442;2023-08-07T11:29:38;95678.03;;;12.51;100.00
62634;BME280;48704;50.534;6.442;2023-08-07T11:32:04;95684.22;;;13.79;100.00
62634;BME280;48704;50.534;6.442;2023-08-07T11:34:30;95683.84;;;13.60;100.00
62634;BME280;48704;50.534;6.442;2023-08-07T11:36:58;95687.28;;;14.49;100.00
62634;BME280;48704;50.534;6.442;2023-08-07T11:39:26;95683.59;;;14.75;100.00
62634;BME280;48704;50.534;6.442;2023-08-07T11:41:51;95678.69;;;15.34;100.00
62634;BME280;48704;50.534;6.442;2023-08-07T11:44:23;95684.09;;;15.60;100.00
62634;BME280;48704;50.534;6.442;2023-08-07T11:46:50;95676.91;;;15.37;100.00
62634;BME280;48704;50.534;6.442;2023-08-07T11:49:17;95684.06;;;14.67;100.00
62634;BME280;48704;50.534;6.442;2023-08-07T11:51:43;95683.06;;;15.52;100.00
62634;BME280;48704;50.534;6.442;2023-08-07T11:54:14;95681.66;;;15.03;100.00
62634;BME280;48704;50.534;6.442;2023-08-07T11:56:41;95681.59;;;14.38;100.00
62634;BME280;48704;50.534;6.442;2023-08-07T11:59:11;95680.47;;;14.61;100.00
62634;BME280;48704;50.534;6.442;2023-08-07T12:01:38;95681.94;;;14.51;100.00
62634;BME280;48704;50.534;6.442;2023-08-07T12:06:32;95697.03;;;15.24;100.00
62634;BME280;48704;50.534;6.442;2023-08-07T12:09:00;95690.88;;;15.09;100.00
62634;BME280;48704;50.534;6.442;2023-08-07T12:11:29;95685.41;;;14.35;100.00
62634;BME280;48704;50.534;6.442;2023-08-07T12:13:54;95684.53;;;14.60;100.00
62634;BME280;48704;50.534;6.442;2023-08-07T12:16:20;95691.94;;;15.28;100.00
62634;BME280;48704;50.534;6.442;2023-08-07T12:18:48;95671.06;;;15.52;100.00
62634;BME280;48704;50.534;6.442;2023-08-07T12:21:17;95681.56;;;16.13;96.72
62634;BME280;48704;50.534;6.442;2023-08-07T12:23:46;95682.34;;;15.57;100.00
62634;BME280;48704;50.534;6.442;2023-08-07T12:26:15;95675.72;;;15.88;100.00
62634;BME280;48704;50.534;6.442;2023-08-07T12:28:41;95668.50;;;15.43;95.55
62634;BME280;48704;50.534;6.442;2023-08-07T12:31:07;95682.25;;;15.29;97.60
62634;BME280;48704;50.534;6.442;2023-08-07T12:33:34;95683.34;;;15.60;100.00
62634;BME280;48704;50.534;6.442;2023-08-07T12:36:01;95670.06;;;16.33;91.21
62634;BME280;48704;50.534;6.442;2023-08-07T12:38:28;95681.38;;;14.95;94.36
62634;BME280;48704;50.534;6.442;2023-08-07T12:40:54;95680.72;;;15.28;91.81
62634;BME280;48704;50.534;6.442;2023-08-07T12:43:20;95675.47;;;14.77;97.75
62634;BME280;48704;50.534;6.442;2023-08-07T12:45:45;95694.34;;;14.82;98.51
62634;BME280;48704;50.534;6.442;2023-08-07T12:48:13;95681.69;;;14.49;98.11
62634;BME280;48704;50.534;6.442;2023-08-07T12:50:42;95681.97;;;15.27;95.74
62634;BME280;48704;50.534;6.442;2023-08-07T12:53:08;95675.59;;;15.21;96.37
62634;BME280;48704;50.534;6.442;2023-08-07T12:55:39;95690.75;;;15.63;95.69
62634;BME280;48704;50.534;6.442;2023-08-07T12:58:05;95683.31;;;16.38;88.40
62634;BME280;48704;50.534;6.442;2023-08-07T13:00:32;95682.00;;;16.56;88.47
62634;BME280;48704;50.534;6.442;2023-08-07T13:02:58;95688.13;;;16.71;87.05